Terminal Aerodrome Forecast
Issued by NWS

Home | Current Version | Previous Version | Text Only | Print | Product List | Glossary On
Versions: 1 2 3 4 5 6 7 8 9 10 11 12 13 14
449
FTUS41 KBTV 261739
TAFRUT
TAF
KRUT 261739Z 2618/2718 31005KT P6SM VCSH SCT004 OVC020
      TEMPO 2618/2622 5SM -RA BR BKN004
     FM270000 32005KT P6SM OVC010
     FM270600 32004KT 3SM BR OVC010
     FM271300 34005KT P6SM OVC025=

USA.gov is the U.S. government's official web portal to all federal, state and local government web resources and services.